sensor_id;sensor_type;location;lat;lon;timestamp;pressure;altitude;pressure_sealevel;temperature;humidity
58471;BME280;44258;51.288;12.068;2023-07-16T00:01:18;100098.56;;;21.95;68.92
58471;BME280;44258;51.288;12.068;2023-07-16T00:04:05;100081.44;;;21.84;68.94
58471;BME280;44258;51.288;12.068;2023-07-16T00:06:53;100085.47;;;21.72;70.01
58471;BME280;44258;51.288;12.068;2023-07-16T00:09:41;100064.06;;;21.67;70.14
58471;BME280;44258;51.288;12.068;2023-07-16T00:12:28;100082.69;;;21.64;69.92
58471;BME280;44258;51.288;12.068;2023-07-16T00:15:15;100072.34;;;21.84;69.02
58471;BME280;44258;51.288;12.068;2023-07-16T00:18:02;100058.59;;;22.10;68.51
58471;BME280;44258;51.288;12.068;2023-07-16T00:20:51;100039.13;;;22.29;67.04
58471;BME280;44258;51.288;12.068;2023-07-16T00:23:39;100048.72;;;22.42;67.35
58471;BME280;44258;51.288;12.068;2023-07-16T00:26:26;100030.22;;;22.52;66.51
58471;BME280;44258;51.288;12.068;2023-07-16T00:29:15;100007.94;;;22.55;66.77
58471;BME280;44258;51.288;12.068;2023-07-16T00:32:02;100001.09;;;22.59;67.20
58471;BME280;44258;51.288;12.068;2023-07-16T00:34:50;99989.97;;;22.61;67.05
58471;BME280;44258;51.288;12.068;2023-07-16T00:37:37;99984.16;;;22.72;66.92
58471;BME280;44258;51.288;12.068;2023-07-16T00:40:25;99992.19;;;22.82;66.87
58471;BME280;44258;51.288;12.068;2023-07-16T00:43:15;99972.47;;;22.95;65.44
58471;BME280;44258;51.288;12.068;2023-07-16T00:46:05;99980.69;;;22.95;65.86
58471;BME280;44258;51.288;12.068;2023-07-16T00:48:53;99990.94;;;23.01;65.33
58471;BME280;44258;51.288;12.068;2023-07-16T00:51:40;99990.06;;;23.00;65.09
58471;BME280;44258;51.288;12.068;2023-07-16T00:54:28;99984.59;;;23.00;65.74
58471;BME280;44258;51.288;12.068;2023-07-16T00:57:17;100005.00;;;22.98;66.12
58471;BME280;44258;51.288;12.068;2023-07-16T01:00:05;100009.31;;;22.76;66.57
58471;BME280;44258;51.288;12.068;2023-07-16T01:02:53;100005.56;;;22.85;66.51
58471;BME280;44258;51.288;12.068;2023-07-16T01:05:45;100007.44;;;22.84;66.17
58471;BME280;44258;51.288;12.068;2023-07-16T01:08:40;100016.50;;;22.60;67.09
58471;BME280;44258;51.288;12.068;2023-07-16T01:11:28;100010.53;;;22.73;66.44
58471;BME280;44258;51.288;12.068;2023-07-16T01:14:18;100012.03;;;22.67;66.68
58471;BME280;44258;51.288;12.068;2023-07-16T01:17:06;100008.63;;;22.49;66.78
58471;BME280;44258;51.288;12.068;2023-07-16T01:19:53;100019.94;;;22.62;65.84
58471;BME280;44258;51.288;12.068;2023-07-16T01:22:57;100019.59;;;22.49;66.87
58471;BME280;44258;51.288;12.068;2023-07-16T01:25:56;100010.19;;;22.68;65.35
58471;BME280;44258;51.288;12.068;2023-07-16T01:29:20;100003.34;;;22.47;66.26
58471;BME280;44258;51.288;12.068;2023-07-16T01:32:11;99994.94;;;22.41;66.47
58471;BME280;44258;51.288;12.068;2023-07-16T01:34:59;99984.50;;;22.36;67.16
58471;BME280;44258;51.288;12.068;2023-07-16T01:37:46;99997.34;;;22.36;67.17
58471;BME280;44258;51.288;12.068;2023-07-16T01:40:33;99987.22;;;22.36;67.05
58471;BME280;44258;51.288;12.068;2023-07-16T01:43:20;99976.13;;;22.38;67.32
58471;BME280;44258;51.288;12.068;2023-07-16T01:46:09;99994.94;;;22.41;67.26
58471;BME280;44258;51.288;12.068;2023-07-16T01:48:56;100002.81;;;22.52;66.51
58471;BME280;44258;51.288;12.068;2023-07-16T01:51:43;100003.81;;;22.51;65.83
58471;BME280;44258;51.288;12.068;2023-07-16T01:54:29;100000.59;;;22.47;65.78
58471;BME280;44258;51.288;12.068;2023-07-16T01:57:16;100000.09;;;22.36;65.61
58471;BME280;44258;51.288;12.068;2023-07-16T02:00:04;100012.22;;;22.25;66.68
58471;BME280;44258;51.288;12.068;2023-07-16T02:02:53;100014.25;;;22.15;67.17
58471;BME280;44258;51.288;12.068;2023-07-16T02:05:40;100009.47;;;22.08;67.43
58471;BME280;44258;51.288;12.068;2023-07-16T02:08:27;100034.63;;;22.12;67.85
58471;BME280;44258;51.288;12.068;2023-07-16T02:11:14;100032.25;;;22.17;67.80
58471;BME280;44258;51.288;12.068;2023-07-16T02:14:00;100026.59;;;22.27;66.90
58471;BME280;44258;51.288;12.068;2023-07-16T02:16:47;100024.75;;;22.27;67.05
58471;BME280;44258;51.288;12.068;2023-07-16T02:19:36;100035.50;;;22.29;67.37
58471;BME280;44258;51.288;12.068;2023-07-16T02:22:25;100014.78;;;22.18;67.28
58471;BME280;44258;51.288;12.068;2023-07-16T02:25:12;100013.03;;;21.92;68.24
58471;BME280;44258;51.288;12.068;2023-07-16T02:28:01;100012.63;;;21.79;69.26
58471;BME280;44258;51.288;12.068;2023-07-16T02:30:49;100013.63;;;21.70;69.74
58471;BME280;44258;51.288;12.068;2023-07-16T02:33:36;100018.09;;;21.71;68.92
58471;BME280;44258;51.288;12.068;2023-07-16T02:36:24;100015.34;;;21.71;69.82
58471;BME280;44258;51.288;12.068;2023-07-16T02:39:11;100014.50;;;21.70;69.85
58471;BME280;44258;51.288;12.068;2023-07-16T02:41:58;100004.72;;;21.68;69.35
58471;BME280;44258;51.288;12.068;2023-07-16T02:44:45;100006.25;;;21.62;70.43
58471;BME280;44258;51.288;12.068;2023-07-16T02:47:32;99993.25;;;21.56;70.15
58471;BME280;44258;51.288;12.068;2023-07-16T02:50:19;100002.13;;;21.50;70.54
58471;BME280;44258;51.288;12.068;2023-07-16T02:53:07;100000.09;;;21.60;69.96
58471;BME280;44258;51.288;12.068;2023-07-16T02:55:54;99991.53;;;21.63;70.08
58471;BME280;44258;51.288;12.068;2023-07-16T02:58:42;99980.28;;;21.66;69.57
58471;BME280;44258;51.288;12.068;2023-07-16T03:01:29;99962.94;;;21.49;70.10
58471;BME280;44258;51.288;12.068;2023-07-16T03:04:16;99953.19;;;21.47;69.89
58471;BME280;44258;51.288;12.068;2023-07-16T03:07:05;99951.16;;;21.49;69.42
58471;BME280;44258;51.288;12.068;2023-07-16T03:09:53;99953.00;;;21.40;70.17
58471;BME280;44258;51.288;12.068;2023-07-16T03:12:40;99950.97;;;21.42;69.45
58471;BME280;44258;51.288;12.068;2023-07-16T03:15:30;99949.09;;;21.51;69.73
58471;BME280;44258;51.288;12.068;2023-07-16T03:18:30;99952.88;;;21.50;69.19
58471;BME280;44258;51.288;12.068;2023-07-16T03:21:17;99948.28;;;21.59;68.68
58471;BME280;44258;51.288;12.068;2023-07-16T03:24:05;99948.28;;;21.67;68.82
58471;BME280;44258;51.288;12.068;2023-07-16T03:26:53;99948.63;;;21.72;68.42
58471;BME280;44258;51.288;12.068;2023-07-16T03:29:40;99964.56;;;21.77;68.09
58471;BME280;44258;51.288;12.068;2023-07-16T03:32:27;99975.16;;;21.80;68.33
58471;BME280;44258;51.288;12.068;2023-07-16T03:35:14;99992.47;;;21.88;68.57
58471;BME280;44258;51.288;12.068;2023-07-16T03:38:01;100014.75;;;22.02;67.81
58471;BME280;44258;51.288;12.068;2023-07-16T03:40:50;100024.72;;;22.03;67.53
58471;BME280;44258;51.288;12.068;2023-07-16T03:43:41;100018.88;;;22.06;67.56
58471;BME280;44258;51.288;12.068;2023-07-16T03:46:29;100039.25;;;22.11;67.68
58471;BME280;44258;51.288;12.068;2023-07-16T03:49:17;100063.38;;;22.16;66.91
58471;BME280;44258;51.288;12.068;2023-07-16T03:52:05;100093.88;;;22.13;66.74
58471;BME280;44258;51.288;12.068;2023-07-16T03:54:52;100111.66;;;22.09;67.09
58471;BME280;44258;51.288;12.068;2023-07-16T03:57:40;100115.38;;;22.00;67.43
58471;BME280;44258;51.288;12.068;2023-07-16T04:00:28;100122.59;;;22.01;67.61
58471;BME280;44258;51.288;12.068;2023-07-16T04:03:15;100117.75;;;21.95;67.50
58471;BME280;44258;51.288;12.068;2023-07-16T04:06:02;100104.97;;;22.03;67.26
58471;BME280;44258;51.288;12.068;2023-07-16T04:08:49;100108.56;;;22.12;67.38
58471;BME280;44258;51.288;12.068;2023-07-16T04:11:39;100118.84;;;22.10;67.38
58471;BME280;44258;51.288;12.068;2023-07-16T04:14:31;100122.63;;;22.17;66.60
58471;BME280;44258;51.288;12.068;2023-07-16T04:17:19;100112.72;;;22.24;66.64
58471;BME280;44258;51.288;12.068;2023-07-16T04:20:07;100117.19;;;22.25;66.05
58471;BME280;44258;51.288;12.068;2023-07-16T04:22:54;100118.16;;;22.16;66.28
58471;BME280;44258;51.288;12.068;2023-07-16T04:25:41;100122.63;;;22.09;65.66
58471;BME280;44258;51.288;12.068;2023-07-16T04:28:29;100135.63;;;22.07;66.04
58471;BME280;44258;51.288;12.068;2023-07-16T04:31:15;100129.09;;;22.08;66.15
58471;BME280;44258;51.288;12.068;2023-07-16T04:34:05;100135.25;;;22.02;66.57
58471;BME280;44258;51.288;12.068;2023-07-16T04:36:53;100140.22;;;22.06;66.53
58471;BME280;44258;51.288;12.068;2023-07-16T04:39:40;100143.47;;;22.10;66.32
58471;BME280;44258;51.288;12.068;2023-07-16T04:42:27;100154.31;;;22.20;66.30
58471;BME280;44258;51.288;12.068;2023-07-16T04:45:13;100158.75;;;22.21;65.97
58471;BME280;44258;51.288;12.068;2023-07-16T04:48:00;100165.34;;;22.02;66.31
58471;BME280;44258;51.288;12.068;2023-07-16T04:50:50;100158.81;;;21.95;66.49
58471;BME280;44258;51.288;12.068;2023-07-16T04:53:38;100162.66;;;22.10;66.07
58471;BME280;44258;51.288;12.068;2023-07-16T04:56:25;100167.88;;;21.95;67.35
58471;BME280;44258;51.288;12.068;2023-07-16T04:59:12;100171.38;;;22.05;66.84
58471;BME280;44258;51.288;12.068;2023-07-16T05:01:59;100181.69;;;22.20;65.35
58471;BME280;44258;51.288;12.068;2023-07-16T05:04:46;100184.28;;;22.21;65.41
58471;BME280;44258;51.288;12.068;2023-07-16T05:07:35;100188.75;;;22.39;65.04
58471;BME280;44258;51.288;12.068;2023-07-16T05:10:22;100196.63;;;22.33;64.26
58471;BME280;44258;51.288;12.068;2023-07-16T05:13:09;100199.94;;;22.45;64.06
58471;BME280;44258;51.288;12.068;2023-07-16T05:15:56;100205.72;;;22.42;63.65
58471;BME280;44258;51.288;12.068;2023-07-16T05:18:45;100210.72;;;22.55;63.50
58471;BME280;44258;51.288;12.068;2023-07-16T05:21:33;100201.78;;;22.45;63.03
58471;BME280;44258;51.288;12.068;2023-07-16T05:24:21;100211.41;;;22.49;63.33
58471;BME280;44258;51.288;12.068;2023-07-16T05:27:13;100206.59;;;22.51;63.58
58471;BME280;44258;51.288;12.068;2023-07-16T05:29:59;100220.84;;;22.63;62.50
58471;BME280;44258;51.288;12.068;2023-07-16T05:32:46;100221.22;;;22.68;61.82
58471;BME280;44258;51.288;12.068;2023-07-16T05:35:34;100226.19;;;22.64;61.41
58471;BME280;44258;51.288;12.068;2023-07-16T05:38:21;100222.72;;;22.54;61.93
58471;BME280;44258;51.288;12.068;2023-07-16T05:41:10;100228.06;;;22.56;61.75
58471;BME280;44258;51.288;12.068;2023-07-16T05:43:57;100236.44;;;22.62;62.17
58471;BME280;44258;51.288;12.068;2023-07-16T05:46:43;100230.69;;;22.82;61.39
58471;BME280;44258;51.288;12.068;2023-07-16T05:49:30;100239.44;;;22.93;61.19
58471;BME280;44258;51.288;12.068;2023-07-16T05:52:17;100236.19;;;22.98;60.92
58471;BME280;44258;51.288;12.068;2023-07-16T05:55:05;100245.66;;;23.12;61.08
58471;BME280;44258;51.288;12.068;2023-07-16T05:57:55;100238.31;;;23.21;60.34
58471;BME280;44258;51.288;12.068;2023-07-16T06:00:44;100256.97;;;23.25;59.51
58471;BME280;44258;51.288;12.068;2023-07-16T06:03:31;100259.91;;;23.48;59.10
58471;BME280;44258;51.288;12.068;2023-07-16T06:06:18;100263.19;;;23.52;58.35
58471;BME280;44258;51.288;12.068;2023-07-16T06:09:05;100267.47;;;23.63;57.74
58471;BME280;44258;51.288;12.068;2023-07-16T06:11:52;100268.16;;;23.57;57.60
58471;BME280;44258;51.288;12.068;2023-07-16T06:14:42;100269.88;;;23.66;57.72
58471;BME280;44258;51.288;12.068;2023-07-16T06:17:32;100285.78;;;23.95;56.59
58471;BME280;44258;51.288;12.068;2023-07-16T06:20:19;100287.97;;;24.16;56.00
58471;BME280;44258;51.288;12.068;2023-07-16T06:23:08;100297.53;;;24.45;55.02
58471;BME280;44258;51.288;12.068;2023-07-16T06:25:56;100307.09;;;24.57;54.97
58471;BME280;44258;51.288;12.068;2023-07-16T06:28:43;100302.56;;;24.64;53.84
58471;BME280;44258;51.288;12.068;2023-07-16T06:31:36;100293.97;;;24.76;53.23
58471;BME280;44258;51.288;12.068;2023-07-16T06:34:23;100306.44;;;24.47;51.82
58471;BME280;44258;51.288;12.068;2023-07-16T06:37:09;100301.63;;;24.49;51.27
58471;BME280;44258;51.288;12.068;2023-07-16T06:39:57;100295.09;;;24.50;51.40
58471;BME280;44258;51.288;12.068;2023-07-16T06:42:44;100290.56;;;24.74;50.75
58471;BME280;44258;51.288;12.068;2023-07-16T06:45:30;100278.59;;;24.50;49.41
58471;BME280;44258;51.288;12.068;2023-07-16T06:48:19;100279.19;;;24.68;49.62
58471;BME280;44258;51.288;12.068;2023-07-16T06:51:06;100289.56;;;24.89;49.09
58471;BME280;44258;51.288;12.068;2023-07-16T06:53:53;100281.78;;;25.01;49.37
58471;BME280;44258;51.288;12.068;2023-07-16T06:56:39;100302.31;;;25.14;47.88
58471;BME280;44258;51.288;12.068;2023-07-16T06:59:27;100294.34;;;25.27;47.85
58471;BME280;44258;51.288;12.068;2023-07-16T07:02:15;100289.63;;;25.36;46.76
58471;BME280;44258;51.288;12.068;2023-07-16T07:05:04;100299.06;;;25.41;46.40
58471;BME280;44258;51.288;12.068;2023-07-16T07:07:51;100297.88;;;25.59;46.48
58471;BME280;44258;51.288;12.068;2023-07-16T07:10:38;100308.97;;;25.88;45.68
58471;BME280;44258;51.288;12.068;2023-07-16T07:13:26;100301.63;;;25.66;45.70
58471;BME280;44258;51.288;12.068;2023-07-16T07:16:15;100308.38;;;25.63;46.53
58471;BME280;44258;51.288;12.068;2023-07-16T07:19:02;100320.44;;;26.00;45.88
58471;BME280;44258;51.288;12.068;2023-07-16T07:21:50;100316.94;;;26.06;44.66
58471;BME280;44258;51.288;12.068;2023-07-16T07:24:37;100318.22;;;25.96;43.85
58471;BME280;44258;51.288;12.068;2023-07-16T07:27:24;100318.63;;;26.07;44.63
58471;BME280;44258;51.288;12.068;2023-07-16T07:30:11;100309.50;;;26.07;43.72
58471;BME280;44258;51.288;12.068;2023-07-16T07:32:58;100312.38;;;26.28;43.04
58471;BME280;44258;51.288;12.068;2023-07-16T07:35:45;100310.28;;;26.16;42.96
58471;BME280;44258;51.288;12.068;2023-07-16T07:38:34;100310.94;;;26.18;43.08
58471;BME280;44258;51.288;12.068;2023-07-16T07:41:21;100314.00;;;26.38;42.29
58471;BME280;44258;51.288;12.068;2023-07-16T07:44:08;100327.81;;;26.67;42.56
58471;BME280;44258;51.288;12.068;2023-07-16T07:46:54;100330.25;;;26.92;41.51
58471;BME280;44258;51.288;12.068;2023-07-16T07:49:41;100328.13;;;26.94;40.02
58471;BME280;44258;51.288;12.068;2023-07-16T07:52:31;100326.41;;;26.93;41.21
58471;BME280;44258;51.288;12.068;2023-07-16T07:55:21;100330.72;;;26.96;40.37
58471;BME280;44258;51.288;12.068;2023-07-16T07:58:08;100331.06;;;27.07;39.76
58471;BME280;44258;51.288;12.068;2023-07-16T08:00:55;100329.31;;;27.21;38.88
58471;BME280;44258;51.288;12.068;2023-07-16T08:03:42;100340.59;;;27.41;38.64
58471;BME280;44258;51.288;12.068;2023-07-16T08:06:28;100339.94;;;27.39;39.31
58471;BME280;44258;51.288;12.068;2023-07-16T08:09:16;100335.13;;;27.26;39.23
58471;BME280;44258;51.288;12.068;2023-07-16T08:12:06;100335.38;;;27.32;38.80
58471;BME280;44258;51.288;12.068;2023-07-16T08:14:54;100336.91;;;27.56;37.75
58471;BME280;44258;51.288;12.068;2023-07-16T08:17:41;100339.00;;;27.32;37.93
58471;BME280;44258;51.288;12.068;2023-07-16T08:20:28;100345.28;;;27.84;37.89
58471;BME280;44258;51.288;12.068;2023-07-16T08:23:15;100347.44;;;27.88;38.24
58471;BME280;44258;51.288;12.068;2023-07-16T08:26:02;100353.28;;;28.28;37.45
58471;BME280;44258;51.288;12.068;2023-07-16T08:28:50;100347.94;;;28.55;36.96
58471;BME280;44258;51.288;12.068;2023-07-16T08:31:38;100352.13;;;28.86;36.40
58471;BME280;44258;51.288;12.068;2023-07-16T08:34:25;100355.19;;;28.28;35.52
58471;BME280;44258;51.288;12.068;2023-07-16T08:37:12;100359.09;;;28.12;35.46
58471;BME280;44258;51.288;12.068;2023-07-16T08:39:59;100357.16;;;27.84;34.97
58471;BME280;44258;51.288;12.068;2023-07-16T08:42:47;100357.59;;;27.81;33.75
58471;BME280;44258;51.288;12.068;2023-07-16T08:45:39;100352.63;;;27.55;33.44
58471;BME280;44258;51.288;12.068;2023-07-16T08:48:28;100368.94;;;27.72;33.46
58471;BME280;44258;51.288;12.068;2023-07-16T08:51:15;100359.03;;;28.34;32.51
58471;BME280;44258;51.288;12.068;2023-07-16T08:54:02;100364.41;;;28.70;32.41
58471;BME280;44258;51.288;12.068;2023-07-16T08:56:50;100365.63;;;28.61;31.63
58471;BME280;44258;51.288;12.068;2023-07-16T08:59:38;100363.91;;;28.60;31.88
58471;BME280;44258;51.288;12.068;2023-07-16T09:02:26;100373.00;;;28.25;33.04
58471;BME280;44258;51.288;12.068;2023-07-16T09:05:14;100381.66;;;27.87;33.47
58471;BME280;44258;51.288;12.068;2023-07-16T09:08:01;100370.63;;;28.16;32.64
58471;BME280;44258;51.288;12.068;2023-07-16T09:10:55;100375.84;;;28.60;32.03
58471;BME280;44258;51.288;12.068;2023-07-16T09:13:45;100374.84;;;29.09;31.85
58471;BME280;44258;51.288;12.068;2023-07-16T09:16:33;100387.97;;;28.94;31.52
58471;BME280;44258;51.288;12.068;2023-07-16T09:19:21;100382.88;;;28.63;32.10
58471;BME280;44258;51.288;12.068;2023-07-16T09:22:08;100370.25;;;28.25;32.75
58471;BME280;44258;51.288;12.068;2023-07-16T09:24:55;100381.47;;;27.89;33.15
58471;BME280;44258;51.288;12.068;2023-07-16T09:27:42;100383.06;;;27.62;33.14
58471;BME280;44258;51.288;12.068;2023-07-16T09:30:31;100376.31;;;26.92;34.08
58471;BME280;44258;51.288;12.068;2023-07-16T09:33:19;100381.59;;;26.93;34.04
58471;BME280;44258;51.288;12.068;2023-07-16T09:36:08;100378.38;;;26.75;34.18
58471;BME280;44258;51.288;12.068;2023-07-16T09:38:55;100381.06;;;26.98;33.68
58471;BME280;44258;51.288;12.068;2023-07-16T09:41:44;100372.44;;;27.59;32.50
58471;BME280;44258;51.288;12.068;2023-07-16T09:44:32;100366.38;;;27.70;31.42
58471;BME280;44258;51.288;12.068;2023-07-16T09:47:22;100368.84;;;27.43;32.08
58471;BME280;44258;51.288;12.068;2023-07-16T09:50:10;100381.50;;;27.16;32.45
58471;BME280;44258;51.288;12.068;2023-07-16T09:52:58;100371.38;;;27.60;32.99
58471;BME280;44258;51.288;12.068;2023-07-16T09:55:46;100368.41;;;28.04;33.15
58471;BME280;44258;51.288;12.068;2023-07-16T09:58:36;100372.66;;;28.07;31.56
58471;BME280;44258;51.288;12.068;2023-07-16T10:01:24;100376.16;;;28.16;31.04
58471;BME280;44258;51.288;12.068;2023-07-16T10:04:12;100368.09;;;28.84;31.46
58471;BME280;44258;51.288;12.068;2023-07-16T10:07:00;100374.06;;;28.87;28.92
58471;BME280;44258;51.288;12.068;2023-07-16T10:09:55;100378.66;;;29.08;29.84
58471;BME280;44258;51.288;12.068;2023-07-16T10:12:42;100387.06;;;29.35;29.05
58471;BME280;44258;51.288;12.068;2023-07-16T10:15:32;100378.28;;;29.25;28.72
58471;BME280;44258;51.288;12.068;2023-07-16T10:18:24;100376.41;;;29.25;28.58
58471;BME280;44258;51.288;12.068;2023-07-16T10:21:13;100378.75;;;29.35;29.12
58471;BME280;44258;51.288;12.068;2023-07-16T10:23:59;100365.78;;;29.42;28.50
58471;BME280;44258;51.288;12.068;2023-07-16T10:26:48;100379.75;;;29.21;28.86
58471;BME280;44258;51.288;12.068;2023-07-16T10:29:35;100376.41;;;29.32;28.58
58471;BME280;44258;51.288;12.068;2023-07-16T10:32:26;100365.19;;;28.99;29.49
58471;BME280;44258;51.288;12.068;2023-07-16T10:35:14;100360.22;;;29.42;29.11
58471;BME280;44258;51.288;12.068;2023-07-16T10:38:01;100372.16;;;29.29;29.10
58471;BME280;44258;51.288;12.068;2023-07-16T10:40:48;100376.53;;;29.85;28.86
58471;BME280;44258;51.288;12.068;2023-07-16T10:43:36;100372.94;;;30.05;28.30
58471;BME280;44258;51.288;12.068;2023-07-16T10:46:23;100376.94;;;30.02;28.32
58471;BME280;44258;51.288;12.068;2023-07-16T10:49:13;100362.91;;;30.17;28.45
58471;BME280;44258;51.288;12.068;2023-07-16T10:52:01;100377.41;;;30.06;27.85
58471;BME280;44258;51.288;12.068;2023-07-16T10:54:48;100372.69;;;29.73;27.65
58471;BME280;44258;51.288;12.068;2023-07-16T10:57:35;100375.44;;;29.73;28.45
58471;BME280;44258;51.288;12.068;2023-07-16T11:00:24;100367.97;;;29.74;28.98
58471;BME280;44258;51.288;12.068;2023-07-16T11:03:15;100365.84;;;30.02;28.71
58471;BME280;44258;51.288;12.068;2023-07-16T11:06:06;100371.88;;;30.06;28.36
58471;BME280;44258;51.288;12.068;2023-07-16T11:08:53;100362.28;;;30.15;27.75
58471;BME280;44258;51.288;12.068;2023-07-16T11:11:40;100367.97;;;29.74;29.10
58471;BME280;44258;51.288;12.068;2023-07-16T11:14:27;100355.63;;;29.83;28.74
58471;BME280;44258;51.288;12.068;2023-07-16T11:17:16;100362.03;;;29.83;28.54
58471;BME280;44258;51.288;12.068;2023-07-16T11:20:07;100359.88;;;29.85;28.80
58471;BME280;44258;51.288;12.068;2023-07-16T11:22:58;100348.38;;;29.82;28.22
58471;BME280;44258;51.288;12.068;2023-07-16T11:25:46;100356.50;;;29.70;27.91
58471;BME280;44258;51.288;12.068;2023-07-16T11:28:37;100353.31;;;30.13;27.73
58471;BME280;44258;51.288;12.068;2023-07-16T11:31:24;100355.00;;;29.81;27.63
58471;BME280;44258;51.288;12.068;2023-07-16T11:34:23;100357.88;;;29.39;27.16
58471;BME280;44258;51.288;12.068;2023-07-16T11:37:11;100358.88;;;29.12;28.25
58471;BME280;44258;51.288;12.068;2023-07-16T11:40:02;100365.34;;;29.39;28.45
58471;BME280;44258;51.288;12.068;2023-07-16T11:42:49;100363.03;;;29.56;28.62
58471;BME280;44258;51.288;12.068;2023-07-16T11:45:37;100358.19;;;29.64;27.60
58471;BME280;44258;51.288;12.068;2023-07-16T11:48:24;100354.13;;;29.74;27.92
58471;BME280;44258;51.288;12.068;2023-07-16T11:51:12;100349.66;;;29.79;27.21
58471;BME280;44258;51.288;12.068;2023-07-16T11:53:59;100354.09;;;29.54;28.75
58471;BME280;44258;51.288;12.068;2023-07-16T11:56:46;100330.03;;;29.94;28.12
58471;BME280;44258;51.288;12.068;2023-07-16T11:59:33;100362.88;;;29.71;26.78
58471;BME280;44258;51.288;12.068;2023-07-16T12:02:21;100340.41;;;29.39;27.68
58471;BME280;44258;51.288;12.068;2023-07-16T12:05:08;100335.38;;;29.82;27.45
58471;BME280;44258;51.288;12.068;2023-07-16T12:07:57;100340.06;;;30.22;27.11
58471;BME280;44258;51.288;12.068;2023-07-16T12:10:44;100338.75;;;30.44;27.16
58471;BME280;44258;51.288;12.068;2023-07-16T12:13:31;100334.09;;;30.32;26.78
58471;BME280;44258;51.288;12.068;2023-07-16T12:16:18;100346.69;;;30.14;26.38
58471;BME280;44258;51.288;12.068;2023-07-16T12:19:08;100341.97;;;29.61;27.45
58471;BME280;44258;51.288;12.068;2023-07-16T12:21:56;100356.47;;;29.57;27.15
58471;BME280;44258;51.288;12.068;2023-07-16T12:24:47;100339.00;;;29.76;27.27
58471;BME280;44258;51.288;12.068;2023-07-16T12:27:34;100339.63;;;29.85;27.05
58471;BME280;44258;51.288;12.068;2023-07-16T12:30:21;100343.06;;;30.20;27.23
58471;BME280;44258;51.288;12.068;2023-07-16T12:33:08;100347.53;;;30.28;26.25
58471;BME280;44258;51.288;12.068;2023-07-16T12:35:56;100337.31;;;30.15;27.48
58471;BME280;44258;51.288;12.068;2023-07-16T12:38:43;100355.41;;;30.38;25.30
58471;BME280;44258;51.288;12.068;2023-07-16T12:41:32;100346.91;;;30.13;25.45
58471;BME280;44258;51.288;12.068;2023-07-16T12:44:19;100345.16;;;29.98;26.59
58471;BME280;44258;51.288;12.068;2023-07-16T12:47:06;100347.31;;;30.16;25.63
58471;BME280;44258;51.288;12.068;2023-07-16T12:49:57;100353.28;;;30.40;25.05
58471;BME280;44258;51.288;12.068;2023-07-16T12:52:46;100350.97;;;30.23;24.84
58471;BME280;44258;51.288;12.068;2023-07-16T12:55:33;100345.19;;;30.32;25.31
58471;BME280;44258;51.288;12.068;2023-07-16T12:58:21;100350.94;;;30.43;25.45
58471;BME280;44258;51.288;12.068;2023-07-16T13:01:08;100338.16;;;30.16;25.75
58471;BME280;44258;51.288;12.068;2023-07-16T13:03:56;100351.16;;;29.88;25.67
58471;BME280;44258;51.288;12.068;2023-07-16T13:06:43;100355.84;;;30.01;25.36
58471;BME280;44258;51.288;12.068;2023-07-16T13:09:33;100345.81;;;30.27;25.30
58471;BME280;44258;51.288;12.068;2023-07-16T13:12:19;100350.91;;;30.37;24.91
58471;BME280;44258;51.288;12.068;2023-07-16T13:15:09;100353.72;;;30.03;24.62
58471;BME280;44258;51.288;12.068;2023-07-16T13:17:57;100364.59;;;29.92;25.39
58471;BME280;44258;51.288;12.068;2023-07-16T13:20:44;100360.75;;;29.99;25.45
58471;BME280;44258;51.288;12.068;2023-07-16T13:23:31;100346.03;;;30.25;24.58
58471;BME280;44258;51.288;12.068;2023-07-16T13:26:20;100350.97;;;30.10;25.72
58471;BME280;44258;51.288;12.068;2023-07-16T13:29:07;100358.34;;;30.63;26.46
58471;BME280;44258;51.288;12.068;2023-07-16T13:31:55;100364.13;;;30.48;25.64
58471;BME280;44258;51.288;12.068;2023-07-16T13:34:42;100356.44;;;30.63;24.01
58471;BME280;44258;51.288;12.068;2023-07-16T13:37:29;100351.78;;;29.97;24.66
58471;BME280;44258;51.288;12.068;2023-07-16T13:40:26;100368.44;;;30.11;24.97
58471;BME280;44258;51.288;12.068;2023-07-16T13:43:13;100376.75;;;30.31;24.71
58471;BME280;44258;51.288;12.068;2023-07-16T13:46:00;100373.09;;;30.37;24.10
58471;BME280;44258;51.288;12.068;2023-07-16T13:48:48;100359.91;;;29.99;24.82
58471;BME280;44258;51.288;12.068;2023-07-16T13:51:36;100368.25;;;30.25;24.58
58471;BME280;44258;51.288;12.068;2023-07-16T13:54:23;100365.22;;;30.60;24.63
58471;BME280;44258;51.288;12.068;2023-07-16T13:57:15;100365.47;;;30.25;23.58
58471;BME280;44258;51.288;12.068;2023-07-16T14:00:02;100360.56;;;30.27;24.39
58471;BME280;44258;51.288;12.068;2023-07-16T14:02:50;100353.50;;;30.18;24.71
58471;BME280;44258;51.288;12.068;2023-07-16T14:05:39;100359.69;;;30.20;23.83
58471;BME280;44258;51.288;12.068;2023-07-16T14:08:26;100354.78;;;30.36;23.67
58471;BME280;44258;51.288;12.068;2023-07-16T14:11:13;100361.16;;;30.23;24.14
58471;BME280;44258;51.288;12.068;2023-07-16T14:14:01;100348.34;;;30.48;24.62
58471;BME280;44258;51.288;12.068;2023-07-16T14:16:48;100351.13;;;30.42;23.67
58471;BME280;44258;51.288;12.068;2023-07-16T14:19:36;100349.41;;;30.47;23.68
58471;BME280;44258;51.288;12.068;2023-07-16T14:22:24;100356.63;;;30.55;24.70
58471;BME280;44258;51.288;12.068;2023-07-16T14:25:13;100344.06;;;30.53;23.76
58471;BME280;44258;51.288;12.068;2023-07-16T14:28:00;100348.16;;;30.43;24.04